sensor_id;sensor_type;location;lat;lon;timestamp;P1;durP1;ratioP1;P2;durP2;ratioP2
59434;SDS011;45241;49.768;8.636;2022-07-23T00:00:48;5.97;;;5.07;;
59434;SDS011;45241;49.768;8.636;2022-07-23T00:03:14;6.43;;;5.40;;
59434;SDS011;45241;49.768;8.636;2022-07-23T00:05:39;7.00;;;5.07;;
59434;SDS011;45241;49.768;8.636;2022-07-23T00:08:05;6.00;;;5.40;;
59434;SDS011;45241;49.768;8.636;2022-07-23T00:10:32;7.55;;;5.32;;
59434;SDS011;45241;49.768;8.636;2022-07-23T00:12:57;9.50;;;5.72;;
59434;SDS011;45241;49.768;8.636;2022-07-23T00:15:23;6.90;;;6.05;;
59434;SDS011;45241;49.768;8.636;2022-07-23T00:17:48;8.98;;;6.00;;
59434;SDS011;45241;49.768;8.636;2022-07-23T00:20:14;8.13;;;5.95;;
59434;SDS011;45241;49.768;8.636;2022-07-23T00:23:12;8.25;;;5.65;;
59434;SDS011;45241;49.768;8.636;2022-07-23T00:25:31;7.30;;;5.75;;
59434;SDS011;45241;49.768;8.636;2022-07-23T00:27:59;7.97;;;5.38;;
59434;SDS011;45241;49.768;8.636;2022-07-23T00:30:27;7.28;;;5.70;;
59434;SDS011;45241;49.768;8.636;2022-07-23T00:32:55;9.20;;;5.28;;
59434;SDS011;45241;49.768;8.636;2022-07-23T00:35:23;10.20;;;5.80;;
59434;SDS011;45241;49.768;8.636;2022-07-23T00:37:50;6.93;;;5.63;;
59434;SDS011;45241;49.768;8.636;2022-07-23T00:40:15;7.25;;;5.60;;
59434;SDS011;45241;49.768;8.636;2022-07-23T00:42:41;6.60;;;5.38;;
59434;SDS011;45241;49.768;8.636;2022-07-23T00:45:07;6.90;;;5.50;;
59434;SDS011;45241;49.768;8.636;2022-07-23T00:47:33;6.25;;;5.65;;
59434;SDS011;45241;49.768;8.636;2022-07-23T00:49:59;6.30;;;5.70;;
59434;SDS011;45241;49.768;8.636;2022-07-23T00:52:24;6.43;;;5.68;;
59434;SDS011;45241;49.768;8.636;2022-07-23T00:54:50;6.55;;;5.47;;
59434;SDS011;45241;49.768;8.636;2022-07-23T00:57:15;7.28;;;5.93;;
59434;SDS011;45241;49.768;8.636;2022-07-23T00:59:41;7.57;;;5.35;;
59434;SDS011;45241;49.768;8.636;2022-07-23T01:02:06;7.15;;;5.90;;
59434;SDS011;45241;49.768;8.636;2022-07-23T01:04:32;6.70;;;5.50;;
59434;SDS011;45241;49.768;8.636;2022-07-23T01:06:57;8.23;;;5.60;;
59434;SDS011;45241;49.768;8.636;2022-07-23T01:09:23;5.57;;;4.97;;
59434;SDS011;45241;49.768;8.636;2022-07-23T01:11:49;5.45;;;4.93;;
59434;SDS011;45241;49.768;8.636;2022-07-23T01:14:16;6.72;;;4.55;;
59434;SDS011;45241;49.768;8.636;2022-07-23T01:16:44;6.18;;;4.57;;
59434;SDS011;45241;49.768;8.636;2022-07-23T01:19:11;4.78;;;4.28;;
59434;SDS011;45241;49.768;8.636;2022-07-23T01:21:37;5.22;;;4.00;;
59434;SDS011;45241;49.768;8.636;2022-07-23T01:24:05;4.18;;;3.78;;
59434;SDS011;45241;49.768;8.636;2022-07-23T01:26:30;7.63;;;4.07;;
59434;SDS011;45241;49.768;8.636;2022-07-23T01:28:56;4.45;;;3.90;;
59434;SDS011;45241;49.768;8.636;2022-07-23T01:31:21;4.47;;;4.07;;
59434;SDS011;45241;49.768;8.636;2022-07-23T01:33:47;6.05;;;4.20;;
59434;SDS011;45241;49.768;8.636;2022-07-23T01:36:13;5.72;;;4.70;;
59434;SDS011;45241;49.768;8.636;2022-07-23T01:38:38;5.18;;;4.20;;
59434;SDS011;45241;49.768;8.636;2022-07-23T01:41:03;6.13;;;4.22;;
59434;SDS011;45241;49.768;8.636;2022-07-23T01:43:29;5.70;;;4.00;;
59434;SDS011;45241;49.768;8.636;2022-07-23T01:45:54;5.65;;;4.03;;
59434;SDS011;45241;49.768;8.636;2022-07-23T01:48:20;4.93;;;3.88;;
59434;SDS011;45241;49.768;8.636;2022-07-23T01:50:48;5.15;;;4.40;;
59434;SDS011;45241;49.768;8.636;2022-07-23T01:53:14;5.38;;;4.57;;
59434;SDS011;45241;49.768;8.636;2022-07-23T01:55:40;5.80;;;4.20;;
59434;SDS011;45241;49.768;8.636;2022-07-23T01:58:06;5.53;;;4.03;;
59434;SDS011;45241;49.768;8.636;2022-07-23T02:00:31;4.63;;;4.13;;
59434;SDS011;45241;49.768;8.636;2022-07-23T02:02:57;6.15;;;4.55;;
59434;SDS011;45241;49.768;8.636;2022-07-23T02:05:23;5.03;;;4.18;;
59434;SDS011;45241;49.768;8.636;2022-07-23T02:07:50;4.35;;;3.80;;
59434;SDS011;45241;49.768;8.636;2022-07-23T02:10:15;8.35;;;4.60;;
59434;SDS011;45241;49.768;8.636;2022-07-23T02:12:41;4.90;;;4.38;;
59434;SDS011;45241;49.768;8.636;2022-07-23T02:15:06;5.05;;;4.28;;
59434;SDS011;45241;49.768;8.636;2022-07-23T02:17:32;4.53;;;3.97;;
59434;SDS011;45241;49.768;8.636;2022-07-23T02:19:57;5.25;;;4.00;;
59434;SDS011;45241;49.768;8.636;2022-07-23T02:22:22;4.72;;;4.18;;
59434;SDS011;45241;49.768;8.636;2022-07-23T02:24:48;4.88;;;4.03;;
59434;SDS011;45241;49.768;8.636;2022-07-23T02:27:13;4.65;;;4.22;;
59434;SDS011;45241;49.768;8.636;2022-07-23T02:29:39;4.82;;;3.97;;
59434;SDS011;45241;49.768;8.636;2022-07-23T02:32:04;5.35;;;4.25;;
59434;SDS011;45241;49.768;8.636;2022-07-23T02:34:29;5.63;;;4.35;;
59434;SDS011;45241;49.768;8.636;2022-07-23T02:36:55;3.95;;;3.55;;
59434;SDS011;45241;49.768;8.636;2022-07-23T02:39:20;5.75;;;4.00;;
59434;SDS011;45241;49.768;8.636;2022-07-23T02:41:45;4.68;;;4.20;;
59434;SDS011;45241;49.768;8.636;2022-07-23T02:44:11;7.90;;;4.68;;
59434;SDS011;45241;49.768;8.636;2022-07-23T02:46:36;4.78;;;4.20;;
59434;SDS011;45241;49.768;8.636;2022-07-23T02:49:01;6.03;;;4.93;;
59434;SDS011;45241;49.768;8.636;2022-07-23T02:51:27;6.10;;;4.57;;
59434;SDS011;45241;49.768;8.636;2022-07-23T02:53:52;6.90;;;4.28;;
59434;SDS011;45241;49.768;8.636;2022-07-23T02:56:18;6.72;;;4.68;;
59434;SDS011;45241;49.768;8.636;2022-07-23T02:58:43;5.65;;;4.90;;
59434;SDS011;45241;49.768;8.636;2022-07-23T03:01:08;5.95;;;4.97;;
59434;SDS011;45241;49.768;8.636;2022-07-23T03:03:34;7.30;;;5.40;;
59434;SDS011;45241;49.768;8.636;2022-07-23T03:05:59;7.35;;;5.10;;
59434;SDS011;45241;49.768;8.636;2022-07-23T03:08:24;6.38;;;5.00;;
59434;SDS011;45241;49.768;8.636;2022-07-23T03:10:50;5.75;;;4.30;;
59434;SDS011;45241;49.768;8.636;2022-07-23T03:13:15;5.82;;;4.65;;
59434;SDS011;45241;49.768;8.636;2022-07-23T03:15:41;5.80;;;4.50;;
59434;SDS011;45241;49.768;8.636;2022-07-23T03:18:06;6.82;;;4.35;;
59434;SDS011;45241;49.768;8.636;2022-07-23T03:20:31;8.77;;;4.47;;
59434;SDS011;45241;49.768;8.636;2022-07-23T03:22:57;7.85;;;4.97;;
59434;SDS011;45241;49.768;8.636;2022-07-23T03:25:22;8.00;;;4.85;;
59434;SDS011;45241;49.768;8.636;2022-07-23T03:27:47;6.75;;;4.40;;
59434;SDS011;45241;49.768;8.636;2022-07-23T03:30:13;6.65;;;4.65;;
59434;SDS011;45241;49.768;8.636;2022-07-23T03:32:38;6.95;;;5.03;;
59434;SDS011;45241;49.768;8.636;2022-07-23T03:35:04;5.15;;;4.30;;
59434;SDS011;45241;49.768;8.636;2022-07-23T03:37:30;5.70;;;4.65;;
59434;SDS011;45241;49.768;8.636;2022-07-23T03:39:55;6.28;;;5.05;;
59434;SDS011;45241;49.768;8.636;2022-07-23T03:42:20;7.68;;;5.32;;
59434;SDS011;45241;49.768;8.636;2022-07-23T03:44:46;5.63;;;4.53;;
59434;SDS011;45241;49.768;8.636;2022-07-23T03:47:11;6.60;;;4.57;;
59434;SDS011;45241;49.768;8.636;2022-07-23T03:49:36;6.88;;;4.80;;
59434;SDS011;45241;49.768;8.636;2022-07-23T03:52:01;4.88;;;4.35;;
59434;SDS011;45241;49.768;8.636;2022-07-23T03:54:27;5.55;;;4.70;;
59434;SDS011;45241;49.768;8.636;2022-07-23T03:56:52;6.18;;;5.03;;
59434;SDS011;45241;49.768;8.636;2022-07-23T03:59:18;8.30;;;5.03;;
59434;SDS011;45241;49.768;8.636;2022-07-23T04:01:43;6.25;;;4.32;;
59434;SDS011;45241;49.768;8.636;2022-07-23T04:04:08;7.85;;;5.13;;
59434;SDS011;45241;49.768;8.636;2022-07-23T04:06:34;5.45;;;4.78;;
59434;SDS011;45241;49.768;8.636;2022-07-23T04:09:00;5.97;;;4.53;;
59434;SDS011;45241;49.768;8.636;2022-07-23T04:11:25;6.00;;;4.72;;
59434;SDS011;45241;49.768;8.636;2022-07-23T04:13:51;5.90;;;4.93;;
59434;SDS011;45241;49.768;8.636;2022-07-23T04:16:16;5.82;;;4.30;;
59434;SDS011;45241;49.768;8.636;2022-07-23T04:18:41;6.72;;;5.03;;
59434;SDS011;45241;49.768;8.636;2022-07-23T04:21:07;5.65;;;4.47;;
59434;SDS011;45241;49.768;8.636;2022-07-23T04:23:32;6.45;;;4.93;;
59434;SDS011;45241;49.768;8.636;2022-07-23T04:25:57;7.85;;;4.82;;
59434;SDS011;45241;49.768;8.636;2022-07-23T04:28:23;5.82;;;4.78;;
59434;SDS011;45241;49.768;8.636;2022-07-23T04:30:48;7.03;;;4.93;;
59434;SDS011;45241;49.768;8.636;2022-07-23T04:33:13;6.50;;;4.65;;
59434;SDS011;45241;49.768;8.636;2022-07-23T04:35:38;5.82;;;4.40;;
59434;SDS011;45241;49.768;8.636;2022-07-23T04:38:04;5.25;;;4.53;;
59434;SDS011;45241;49.768;8.636;2022-07-23T04:40:29;6.03;;;4.93;;
59434;SDS011;45241;49.768;8.636;2022-07-23T04:42:55;7.30;;;4.55;;
59434;SDS011;45241;49.768;8.636;2022-07-23T04:45:20;7.05;;;4.75;;
59434;SDS011;45241;49.768;8.636;2022-07-23T04:47:46;5.80;;;4.60;;
59434;SDS011;45241;49.768;8.636;2022-07-23T04:50:12;5.57;;;4.72;;
59434;SDS011;45241;49.768;8.636;2022-07-23T04:52:37;5.53;;;4.30;;
59434;SDS011;45241;49.768;8.636;2022-07-23T04:55:02;7.18;;;4.28;;
59434;SDS011;45241;49.768;8.636;2022-07-23T04:57:28;5.40;;;4.47;;
59434;SDS011;45241;49.768;8.636;2022-07-23T04:59:54;5.47;;;4.32;;
59434;SDS011;45241;49.768;8.636;2022-07-23T05:02:19;5.28;;;4.45;;
59434;SDS011;45241;49.768;8.636;2022-07-23T05:04:44;5.78;;;4.75;;
59434;SDS011;45241;49.768;8.636;2022-07-23T05:07:10;8.32;;;4.80;;
59434;SDS011;45241;49.768;8.636;2022-07-23T05:09:35;7.28;;;4.75;;
59434;SDS011;45241;49.768;8.636;2022-07-23T05:12:00;5.07;;;4.18;;
59434;SDS011;45241;49.768;8.636;2022-07-23T05:14:26;6.70;;;4.90;;
59434;SDS011;45241;49.768;8.636;2022-07-23T05:16:51;5.75;;;4.40;;
59434;SDS011;45241;49.768;8.636;2022-07-23T05:19:17;5.50;;;4.78;;
59434;SDS011;45241;49.768;8.636;2022-07-23T05:21:42;5.90;;;4.53;;
59434;SDS011;45241;49.768;8.636;2022-07-23T05:24:08;6.07;;;4.30;;
59434;SDS011;45241;49.768;8.636;2022-07-23T05:26:33;7.47;;;5.03;;
59434;SDS011;45241;49.768;8.636;2022-07-23T05:28:58;7.30;;;4.80;;
59434;SDS011;45241;49.768;8.636;2022-07-23T05:31:24;7.43;;;4.47;;
59434;SDS011;45241;49.768;8.636;2022-07-23T05:33:49;6.13;;;4.68;;
59434;SDS011;45241;49.768;8.636;2022-07-23T05:36:15;6.28;;;4.65;;
59434;SDS011;45241;49.768;8.636;2022-07-23T05:38:40;5.15;;;4.40;;
59434;SDS011;45241;49.768;8.636;2022-07-23T05:41:05;5.70;;;4.45;;
59434;SDS011;45241;49.768;8.636;2022-07-23T05:43:31;5.07;;;4.38;;
59434;SDS011;45241;49.768;8.636;2022-07-23T05:45:56;5.25;;;4.60;;
59434;SDS011;45241;49.768;8.636;2022-07-23T05:48:21;5.35;;;4.80;;
59434;SDS011;45241;49.768;8.636;2022-07-23T05:50:47;8.68;;;5.03;;
59434;SDS011;45241;49.768;8.636;2022-07-23T05:53:12;6.07;;;4.97;;
59434;SDS011;45241;49.768;8.636;2022-07-23T05:55:38;5.60;;;4.40;;
59434;SDS011;45241;49.768;8.636;2022-07-23T05:58:03;8.32;;;4.90;;
59434;SDS011;45241;49.768;8.636;2022-07-23T06:00:29;6.10;;;4.65;;
59434;SDS011;45241;49.768;8.636;2022-07-23T06:02:54;6.10;;;4.63;;
59434;SDS011;45241;49.768;8.636;2022-07-23T06:05:20;6.80;;;5.20;;
59434;SDS011;45241;49.768;8.636;2022-07-23T06:07:45;6.00;;;4.60;;
59434;SDS011;45241;49.768;8.636;2022-07-23T06:10:10;5.57;;;4.85;;
59434;SDS011;45241;49.768;8.636;2022-07-23T06:12:36;5.47;;;4.50;;
59434;SDS011;45241;49.768;8.636;2022-07-23T06:15:02;6.55;;;4.95;;
59434;SDS011;45241;49.768;8.636;2022-07-23T06:17:28;6.95;;;5.18;;
59434;SDS011;45241;49.768;8.636;2022-07-23T06:19:54;6.75;;;5.43;;
59434;SDS011;45241;49.768;8.636;2022-07-23T06:22:19;6.25;;;4.70;;
59434;SDS011;45241;49.768;8.636;2022-07-23T06:24:45;7.35;;;5.43;;
59434;SDS011;45241;49.768;8.636;2022-07-23T06:27:10;6.55;;;5.15;;
59434;SDS011;45241;49.768;8.636;2022-07-23T06:29:35;7.85;;;5.18;;
59434;SDS011;45241;49.768;8.636;2022-07-23T06:32:01;6.53;;;5.68;;
59434;SDS011;45241;49.768;8.636;2022-07-23T06:34:26;8.18;;;5.28;;
59434;SDS011;45241;49.768;8.636;2022-07-23T06:36:52;6.45;;;5.00;;
59434;SDS011;45241;49.768;8.636;2022-07-23T06:39:17;7.05;;;4.70;;
59434;SDS011;45241;49.768;8.636;2022-07-23T06:41:42;6.20;;;4.95;;
59434;SDS011;45241;49.768;8.636;2022-07-23T06:44:08;5.80;;;4.80;;
59434;SDS011;45241;49.768;8.636;2022-07-23T06:46:33;5.88;;;4.35;;
59434;SDS011;45241;49.768;8.636;2022-07-23T06:48:59;7.68;;;4.93;;
59434;SDS011;45241;49.768;8.636;2022-07-23T06:51:24;5.38;;;4.57;;
59434;SDS011;45241;49.768;8.636;2022-07-23T06:53:50;5.50;;;4.70;;
59434;SDS011;45241;49.768;8.636;2022-07-23T06:56:15;5.82;;;4.70;;
59434;SDS011;45241;49.768;8.636;2022-07-23T06:58:40;6.07;;;4.65;;
59434;SDS011;45241;49.768;8.636;2022-07-23T07:01:06;8.63;;;4.93;;
59434;SDS011;45241;49.768;8.636;2022-07-23T07:03:31;6.25;;;4.70;;
59434;SDS011;45241;49.768;8.636;2022-07-23T07:05:56;8.57;;;4.85;;
59434;SDS011;45241;49.768;8.636;2022-07-23T07:08:22;6.65;;;4.78;;
59434;SDS011;45241;49.768;8.636;2022-07-23T07:10:48;7.32;;;5.47;;
59434;SDS011;45241;49.768;8.636;2022-07-23T07:13:14;5.80;;;4.88;;
59434;SDS011;45241;49.768;8.636;2022-07-23T07:15:39;6.68;;;4.72;;
59434;SDS011;45241;49.768;8.636;2022-07-23T07:18:04;6.07;;;4.65;;
59434;SDS011;45241;49.768;8.636;2022-07-23T07:20:29;5.72;;;4.32;;
59434;SDS011;45241;49.768;8.636;2022-07-23T07:22:55;5.95;;;5.25;;
59434;SDS011;45241;49.768;8.636;2022-07-23T07:25:20;8.35;;;5.07;;
59434;SDS011;45241;49.768;8.636;2022-07-23T07:27:46;8.32;;;5.05;;
59434;SDS011;45241;49.768;8.636;2022-07-23T07:30:11;8.43;;;4.93;;
59434;SDS011;45241;49.768;8.636;2022-07-23T07:32:37;6.28;;;5.20;;
59434;SDS011;45241;49.768;8.636;2022-07-23T07:35:03;6.43;;;5.15;;
59434;SDS011;45241;49.768;8.636;2022-07-23T07:37:29;6.28;;;4.88;;
59434;SDS011;45241;49.768;8.636;2022-07-23T07:39:54;7.93;;;5.43;;
59434;SDS011;45241;49.768;8.636;2022-07-23T07:42:20;7.78;;;5.00;;
59434;SDS011;45241;49.768;8.636;2022-07-23T07:44:45;6.72;;;4.75;;
59434;SDS011;45241;49.768;8.636;2022-07-23T07:47:10;5.75;;;4.35;;
59434;SDS011;45241;49.768;8.636;2022-07-23T07:49:36;6.25;;;5.00;;
59434;SDS011;45241;49.768;8.636;2022-07-23T07:52:02;6.47;;;5.38;;
59434;SDS011;45241;49.768;8.636;2022-07-23T07:54:28;6.82;;;4.97;;
59434;SDS011;45241;49.768;8.636;2022-07-23T07:56:53;6.15;;;4.63;;
59434;SDS011;45241;49.768;8.636;2022-07-23T07:59:18;7.80;;;5.00;;
59434;SDS011;45241;49.768;8.636;2022-07-23T08:01:44;6.80;;;4.45;;
59434;SDS011;45241;49.768;8.636;2022-07-23T08:04:09;5.78;;;4.78;;
59434;SDS011;45241;49.768;8.636;2022-07-23T08:06:34;6.28;;;4.82;;
59434;SDS011;45241;49.768;8.636;2022-07-23T08:09:00;7.57;;;5.60;;
59434;SDS011;45241;49.768;8.636;2022-07-23T08:11:25;7.10;;;5.47;;
59434;SDS011;45241;49.768;8.636;2022-07-23T08:13:50;9.90;;;5.07;;
59434;SDS011;45241;49.768;8.636;2022-07-23T08:16:16;6.18;;;4.78;;
59434;SDS011;45241;49.768;8.636;2022-07-23T08:18:41;6.30;;;5.10;;
59434;SDS011;45241;49.768;8.636;2022-07-23T08:21:07;7.20;;;4.88;;
59434;SDS011;45241;49.768;8.636;2022-07-23T08:23:32;5.97;;;4.65;;
59434;SDS011;45241;49.768;8.636;2022-07-23T08:25:58;6.65;;;5.43;;
59434;SDS011;45241;49.768;8.636;2022-07-23T08:28:24;7.00;;;5.00;;
59434;SDS011;45241;49.768;8.636;2022-07-23T08:30:50;5.90;;;4.47;;
59434;SDS011;45241;49.768;8.636;2022-07-23T08:33:16;5.55;;;4.82;;
59434;SDS011;45241;49.768;8.636;2022-07-23T08:35:43;6.22;;;5.13;;
59434;SDS011;45241;49.768;8.636;2022-07-23T08:38:12;5.32;;;4.82;;
59434;SDS011;45241;49.768;8.636;2022-07-23T08:40:40;6.13;;;5.00;;
59434;SDS011;45241;49.768;8.636;2022-07-23T08:43:09;5.97;;;5.15;;
59434;SDS011;45241;49.768;8.636;2022-07-23T08:45:43;6.90;;;5.40;;
59434;SDS011;45241;49.768;8.636;2022-07-23T08:48:11;5.93;;;4.82;;
59434;SDS011;45241;49.768;8.636;2022-07-23T08:50:41;6.70;;;4.57;;
59434;SDS011;45241;49.768;8.636;2022-07-23T08:55:33;6.13;;;5.10;;
59434;SDS011;45241;49.768;8.636;2022-07-23T08:58:00;5.13;;;4.35;;
59434;SDS011;45241;49.768;8.636;2022-07-23T09:00:25;6.45;;;4.72;;
59434;SDS011;45241;49.768;8.636;2022-07-23T09:02:50;5.57;;;4.65;;
59434;SDS011;45241;49.768;8.636;2022-07-23T09:05:16;5.90;;;4.90;;
59434;SDS011;45241;49.768;8.636;2022-07-23T09:52:00;5.32;;;4.82;;
59434;SDS011;45241;49.768;8.636;2022-07-23T09:54:31;8.50;;;4.47;;
59434;SDS011;45241;49.768;8.636;2022-07-23T09:56:59;6.07;;;4.60;;
59434;SDS011;45241;49.768;8.636;2022-07-23T09:59:30;5.07;;;4.20;;
59434;SDS011;45241;49.768;8.636;2022-07-23T10:01:58;6.72;;;4.63;;
59434;SDS011;45241;49.768;8.636;2022-07-23T10:04:25;6.55;;;4.93;;
59434;SDS011;45241;49.768;8.636;2022-07-23T10:06:53;6.93;;;4.97;;
59434;SDS011;45241;49.768;8.636;2022-07-23T10:09:22;6.72;;;5.13;;
59434;SDS011;45241;49.768;8.636;2022-07-23T10:11:56;7.00;;;5.00;;
59434;SDS011;45241;49.768;8.636;2022-07-23T10:14:40;5.35;;;4.85;;
59434;SDS011;45241;49.768;8.636;2022-07-23T10:17:07;6.03;;;5.10;;
59434;SDS011;45241;49.768;8.636;2022-07-23T10:19:32;5.90;;;5.00;;
59434;SDS011;45241;49.768;8.636;2022-07-23T10:22:00;6.15;;;5.18;;
59434;SDS011;45241;49.768;8.636;2022-07-23T10:30:22;7.80;;;5.72;;
59434;SDS011;45241;49.768;8.636;2022-07-23T10:38:54;6.18;;;5.07;;
59434;SDS011;45241;49.768;8.636;2022-07-23T10:41:33;5.57;;;4.53;;
59434;SDS011;45241;49.768;8.636;2022-07-23T10:44:10;7.47;;;5.55;;
59434;SDS011;45241;49.768;8.636;2022-07-23T10:47:13;7.53;;;5.32;;
59434;SDS011;45241;49.768;8.636;2022-07-23T10:49:50;6.40;;;5.50;;
59434;SDS011;45241;49.768;8.636;2022-07-23T10:52:25;5.82;;;5.22;;
59434;SDS011;45241;49.768;8.636;2022-07-23T10:54:53;5.75;;;5.10;;
59434;SDS011;45241;49.768;8.636;2022-07-23T11:00:14;7.30;;;5.20;;
59434;SDS011;45241;49.768;8.636;2022-07-23T11:02:42;7.90;;;5.20;;
59434;SDS011;45241;49.768;8.636;2022-07-23T11:05:11;6.25;;;5.15;;
59434;SDS011;45241;49.768;8.636;2022-07-23T11:34:29;5.32;;;4.78;;
59434;SDS011;45241;49.768;8.636;2022-07-23T11:37:05;6.35;;;4.80;;
59434;SDS011;45241;49.768;8.636;2022-07-23T11:39:33;5.28;;;4.78;;
59434;SDS011;45241;49.768;8.636;2022-07-23T11:42:00;6.97;;;4.88;;
59434;SDS011;45241;49.768;8.636;2022-07-23T11:44:31;5.78;;;4.88;;
59434;SDS011;45241;49.768;8.636;2022-07-23T11:46:59;6.80;;;5.00;;
59434;SDS011;45241;49.768;8.636;2022-07-23T11:49:26;8.65;;;5.40;;
59434;SDS011;45241;49.768;8.636;2022-07-23T11:52:08;7.22;;;4.65;;
59434;SDS011;45241;49.768;8.636;2022-07-23T11:54:55;5.43;;;4.85;;
59434;SDS011;45241;49.768;8.636;2022-07-23T11:57:26;6.18;;;5.50;;
59434;SDS011;45241;49.768;8.636;2022-07-23T11:59:55;6.18;;;5.10;;
59434;SDS011;45241;49.768;8.636;2022-07-23T12:02:23;6.75;;;5.20;;
59434;SDS011;45241;49.768;8.636;2022-07-23T12:04:49;6.80;;;4.90;;
59434;SDS011;45241;49.768;8.636;2022-07-23T12:07:49;7.40;;;5.20;;
59434;SDS011;45241;49.768;8.636;2022-07-23T12:10:17;6.95;;;4.88;;
59434;SDS011;45241;49.768;8.636;2022-07-23T12:12:45;8.50;;;4.95;;
59434;SDS011;45241;49.768;8.636;2022-07-23T12:15:14;6.47;;;5.30;;
59434;SDS011;45241;49.768;8.636;2022-07-23T12:17:41;6.20;;;4.95;;
59434;SDS011;45241;49.768;8.636;2022-07-23T12:20:09;6.55;;;5.10;;
59434;SDS011;45241;49.768;8.636;2022-07-23T12:22:41;5.55;;;4.93;;
59434;SDS011;45241;49.768;8.636;2022-07-23T12:25:18;6.50;;;5.10;;
59434;SDS011;45241;49.768;8.636;2022-07-23T12:27:45;7.00;;;5.50;;
59434;SDS011;45241;49.768;8.636;2022-07-23T12:30:24;5.60;;;5.05;;
59434;SDS011;45241;49.768;8.636;2022-07-23T12:32:53;6.47;;;4.88;;
59434;SDS011;45241;49.768;8.636;2022-07-23T12:35:20;5.50;;;4.85;;
59434;SDS011;45241;49.768;8.636;2022-07-23T12:37:47;5.53;;;5.03;;
59434;SDS011;45241;49.768;8.636;2022-07-23T12:40:30;6.53;;;5.15;;
59434;SDS011;45241;49.768;8.636;2022-07-23T12:43:01;5.93;;;4.95;;
59434;SDS011;45241;49.768;8.636;2022-07-23T12:45:41;5.82;;;5.05;;
59434;SDS011;45241;49.768;8.636;2022-07-23T12:48:14;5.43;;;4.80;;
59434;SDS011;45241;49.768;8.636;2022-07-23T12:53:11;7.32;;;5.47;;
59434;SDS011;45241;49.768;8.636;2022-07-23T12:55:44;7.95;;;4.95;;
59434;SDS011;45241;49.768;8.636;2022-07-23T12:58:17;6.20;;;5.38;;
59434;SDS011;45241;49.768;8.636;2022-07-23T13:03:25;6.88;;;4.65;;
59434;SDS011;45241;49.768;8.636;2022-07-23T13:05:52;5.63;;;4.57;;
59434;SDS011;45241;49.768;8.636;2022-07-23T13:08:18;5.47;;;4.47;;
59434;SDS011;45241;49.768;8.636;2022-07-23T13:10:43;6.90;;;5.45;;
59434;SDS011;45241;49.768;8.636;2022-07-23T13:13:12;6.07;;;4.88;;
59434;SDS011;45241;49.768;8.636;2022-07-23T13:15:38;6.47;;;5.25;;
59434;SDS011;45241;49.768;8.636;2022-07-23T13:18:03;5.47;;;4.95;;
59434;SDS011;45241;49.768;8.636;2022-07-23T13:20:28;8.13;;;4.93;;
59434;SDS011;45241;49.768;8.636;2022-07-23T13:22:56;5.30;;;4.70;;
59434;SDS011;45241;49.768;8.636;2022-07-23T13:25:22;6.05;;;4.68;;
59434;SDS011;45241;49.768;8.636;2022-07-23T13:27:47;6.93;;;4.68;;
59434;SDS011;45241;49.768;8.636;2022-07-23T13:30:12;6.60;;;4.80;;
59434;SDS011;45241;49.768;8.636;2022-07-23T13:32:37;6.88;;;5.30;;
59434;SDS011;45241;49.768;8.636;2022-07-23T13:35:03;5.97;;;4.68;;
59434;SDS011;45241;49.768;8.636;2022-07-23T13:37:29;7.47;;;4.70;;
59434;SDS011;45241;49.768;8.636;2022-07-23T13:39:54;6.55;;;4.70;;
59434;SDS011;45241;49.768;8.636;2022-07-23T13:42:20;7.45;;;4.82;;
59434;SDS011;45241;49.768;8.636;2022-07-23T13:44:45;5.22;;;4.72;;
59434;SDS011;45241;49.768;8.636;2022-07-23T13:47:10;8.43;;;4.97;;
59434;SDS011;45241;49.768;8.636;2022-07-23T13:49:36;7.60;;;5.00;;
59434;SDS011;45241;49.768;8.636;2022-07-23T13:52:02;5.20;;;4.50;;
59434;SDS011;45241;49.768;8.636;2022-07-23T13:54:28;6.05;;;4.75;;
59434;SDS011;45241;49.768;8.636;2022-07-23T13:56:54;5.97;;;4.95;;
59434;SDS011;45241;49.768;8.636;2022-07-23T13:59:19;6.18;;;4.47;;
59434;SDS011;45241;49.768;8.636;2022-07-23T14:01:44;5.85;;;4.75;;
59434;SDS011;45241;49.768;8.636;2022-07-23T14:04:10;6.50;;;4.95;;
59434;SDS011;45241;49.768;8.636;2022-07-23T14:06:35;6.05;;;4.82;;
59434;SDS011;45241;49.768;8.636;2022-07-23T14:09:00;7.30;;;4.80;;
59434;SDS011;45241;49.768;8.636;2022-07-23T14:11:26;7.50;;;4.78;;
59434;SDS011;45241;49.768;8.636;2022-07-23T14:13:51;6.97;;;4.45;;
59434;SDS011;45241;49.768;8.636;2022-07-23T14:16:16;7.60;;;4.22;;
59434;SDS011;45241;49.768;8.636;2022-07-23T14:18:42;5.28;;;4.45;;
59434;SDS011;45241;49.768;8.636;2022-07-23T14:21:07;6.07;;;4.43;;
59434;SDS011;45241;49.768;8.636;2022-07-23T14:23:33;6.22;;;4.35;;
59434;SDS011;45241;49.768;8.636;2022-07-23T14:25:58;4.85;;;4.35;;
59434;SDS011;45241;49.768;8.636;2022-07-23T14:28:24;4.65;;;4.03;;
59434;SDS011;45241;49.768;8.636;2022-07-23T14:30:49;6.05;;;4.30;;
59434;SDS011;45241;49.768;8.636;2022-07-23T14:33:15;6.47;;;4.47;;
59434;SDS011;45241;49.768;8.636;2022-07-23T14:35:40;4.88;;;4.38;;
59434;SDS011;45241;49.768;8.636;2022-07-23T14:38:06;7.05;;;4.50;;
59434;SDS011;45241;49.768;8.636;2022-07-23T14:40:31;5.75;;;4.63;;
59434;SDS011;45241;49.768;8.636;2022-07-23T14:42:56;6.38;;;4.40;;
59434;SDS011;45241;49.768;8.636;2022-07-23T14:45:21;5.05;;;4.07;;
59434;SDS011;45241;49.768;8.636;2022-07-23T14:47:47;5.47;;;4.90;;
59434;SDS011;45241;49.768;8.636;2022-07-23T14:50:13;4.70;;;4.20;;
59434;SDS011;45241;49.768;8.636;2022-07-23T14:52:39;4.80;;;4.25;;
59434;SDS011;45241;49.768;8.636;2022-07-23T14:55:04;5.07;;;4.57;;
59434;SDS011;45241;49.768;8.636;2022-07-23T14:57:30;5.88;;;4.30;;
59434;SDS011;45241;49.768;8.636;2022-07-23T14:59:55;6.43;;;4.43;;
59434;SDS011;45241;49.768;8.636;2022-07-23T15:02:20;5.70;;;4.65;;
59434;SDS011;45241;49.768;8.636;2022-07-23T15:04:46;4.43;;;4.03;;
59434;SDS011;45241;49.768;8.636;2022-07-23T15:07:11;6.50;;;4.97;;
59434;SDS011;45241;49.768;8.636;2022-07-23T15:09:36;5.30;;;4.57;;
59434;SDS011;45241;49.768;8.636;2022-07-23T15:12:02;5.55;;;4.53;;
59434;SDS011;45241;49.768;8.636;2022-07-23T15:14:28;5.20;;;4.70;;
59434;SDS011;45241;49.768;8.636;2022-07-23T15:16:53;4.72;;;4.18;;
59434;SDS011;45241;49.768;8.636;2022-07-23T15:19:18;4.57;;;4.18;;
59434;SDS011;45241;49.768;8.636;2022-07-23T15:21:44;5.07;;;4.07;;
59434;SDS011;45241;49.768;8.636;2022-07-23T15:24:09;5.45;;;4.35;;
59434;SDS011;45241;49.768;8.636;2022-07-23T15:26:34;4.47;;;4.05;;
59434;SDS011;45241;49.768;8.636;2022-07-23T15:29:00;5.60;;;4.18;;
59434;SDS011;45241;49.768;8.636;2022-07-23T15:31:27;5.13;;;4.07;;
59434;SDS011;45241;49.768;8.636;2022-07-23T15:33:53;6.25;;;4.88;;
59434;SDS011;45241;49.768;8.636;2022-07-23T15:36:18;5.70;;;4.05;;
59434;SDS011;45241;49.768;8.636;2022-07-23T15:38:44;4.80;;;4.22;;
59434;SDS011;45241;49.768;8.636;2022-07-23T15:41:10;5.82;;;4.70;;
59434;SDS011;45241;49.768;8.636;2022-07-23T15:43:35;4.50;;;4.10;;
59434;SDS011;45241;49.768;8.636;2022-07-23T15:46:01;5.00;;;4.50;;
59434;SDS011;45241;49.768;8.636;2022-07-23T15:48:26;5.25;;;4.30;;
59434;SDS011;45241;49.768;8.636;2022-07-23T15:50:52;5.55;;;4.20;;
59434;SDS011;45241;49.768;8.636;2022-07-23T15:53:17;4.90;;;4.40;;
59434;SDS011;45241;49.768;8.636;2022-07-23T15:55:43;5.25;;;4.40;;
59434;SDS011;45241;49.768;8.636;2022-07-23T15:58:10;5.47;;;4.60;;
59434;SDS011;45241;49.768;8.636;2022-07-23T16:00:36;4.93;;;4.40;;
59434;SDS011;45241;49.768;8.636;2022-07-23T16:03:01;5.28;;;4.30;;
59434;SDS011;45241;49.768;8.636;2022-07-23T16:05:27;4.93;;;4.40;;
59434;SDS011;45241;49.768;8.636;2022-07-23T16:07:52;5.82;;;4.15;;
59434;SDS011;45241;49.768;8.636;2022-07-23T16:10:17;4.40;;;4.00;;
59434;SDS011;45241;49.768;8.636;2022-07-23T16:12:43;5.60;;;4.30;;
59434;SDS011;45241;49.768;8.636;2022-07-23T16:15:08;6.40;;;4.35;;
59434;SDS011;45241;49.768;8.636;2022-07-23T16:17:34;5.25;;;4.00;;